createdAt,value
2022-12-04T00:01:22.285Z,99191.91
2022-12-04T00:03:56.373Z,99192.75
2022-12-04T00:06:24.493Z,99186.19
2022-12-04T00:08:52.789Z,99196.81
2022-12-04T00:11:23.704Z,99190.66
2022-12-04T00:13:51.217Z,99176.09
2022-12-04T00:16:21.931Z,99183.19
2022-12-04T00:18:49.930Z,99176.84
2022-12-04T00:21:19.401Z,99178.19
2022-12-04T00:23:47.997Z,99176.69
2022-12-04T00:26:18.810Z,99184.69
2022-12-04T00:28:47.255Z,99189.88
2022-12-04T00:31:17.941Z,99182.00
2022-12-04T00:33:45.537Z,99186.38
2022-12-04T00:36:15.745Z,99169.06
2022-12-04T00:38:44.847Z,99180.09
2022-12-04T00:41:16.025Z,99175.06
2022-12-04T00:43:43.414Z,99181.19
2022-12-04T00:46:10.850Z,99174.34
2022-12-04T00:48:39.050Z,99174.47
2022-12-04T00:51:11.516Z,99174.34
2022-12-04T00:53:39.758Z,99181.44
2022-12-04T00:56:13.733Z,99176.63
2022-12-04T00:58:42.279Z,99166.78
2022-12-04T01:01:12.652Z,99162.94
2022-12-04T01:03:40.972Z,99168.91
2022-12-04T01:06:21.660Z,99157.97
2022-12-04T01:08:51.220Z,99159.19
2022-12-04T01:11:19.936Z,99160.06
2022-12-04T01:13:47.835Z,99154.34
2022-12-04T01:16:31.248Z,99148.56
2022-12-04T01:18:58.760Z,99138.38
2022-12-04T01:21:26.140Z,99140.81
2022-12-04T01:23:53.571Z,99140.38
2022-12-04T01:26:20.951Z,99151.41
2022-12-04T01:28:48.275Z,99148.44
2022-12-04T01:31:18.619Z,99150.91
2022-12-04T01:33:46.916Z,99151.66
2022-12-04T01:36:17.473Z,99146.38
2022-12-04T01:38:45.310Z,99144.59
2022-12-04T01:41:14.919Z,99148.38
2022-12-04T01:43:42.297Z,99147.69
2022-12-04T01:46:11.079Z,99134.06
2022-12-04T01:48:44.245Z,99134.06
2022-12-04T01:51:11.567Z,99142.56
2022-12-04T01:53:43.922Z,99130.78
2022-12-04T01:56:11.603Z,99125.59
2022-12-04T01:58:45.054Z,99131.41
2022-12-04T02:01:12.426Z,99123.66
2022-12-04T02:03:40.898Z,99112.94
2022-12-04T02:06:08.370Z,99101.13
2022-12-04T02:08:37.513Z,99111.25
2022-12-04T02:11:29.500Z,99120.06
2022-12-04T02:14:20.122Z,99131.53
2022-12-04T02:16:52.031Z,99127.00
2022-12-04T02:19:47.348Z,99130.84
2022-12-04T02:22:44.705Z,99123.78
2022-12-04T02:25:18.778Z,99119.84
2022-12-04T02:27:58.060Z,99123.53
2022-12-04T02:30:28.388Z,99118.50
2022-12-04T02:33:07.577Z,99123.34
2022-12-04T02:35:41.706Z,99126.63
2022-12-04T02:38:17.677Z,99128.84
2022-12-04T02:41:05.784Z,99109.94
2022-12-04T02:43:40.229Z,99115.03
2022-12-04T02:46:15.829Z,99112.66
2022-12-04T02:48:45.665Z,99113.50
2022-12-04T02:51:15.823Z,99114.22
2022-12-04T02:53:49.520Z,99107.81
2022-12-04T02:56:23.209Z,99102.16
2022-12-04T02:59:01.420Z,99109.41
2022-12-04T03:01:34.927Z,99109.41
2022-12-04T03:04:16.225Z,99106.94
2022-12-04T03:06:47.455Z,99112.72
2022-12-04T03:09:28.548Z,99101.13
2022-12-04T03:12:01.054Z,99106.69
2022-12-04T03:14:35.092Z,99100.31
2022-12-04T03:17:09.007Z,99104.94
2022-12-04T03:19:51.835Z,99101.25
2022-12-04T03:22:21.911Z,99105.38
2022-12-04T03:24:53.944Z,99099.03
2022-12-04T03:27:51.396Z,99104.47
2022-12-04T03:30:22.014Z,99103.91
2022-12-04T03:32:58.315Z,99106.47
2022-12-04T03:35:33.101Z,99107.56
2022-12-04T03:38:40.594Z,99106.03
2022-12-04T03:41:29.369Z,99093.31
2022-12-04T03:44:51.949Z,99092.91
2022-12-04T03:47:27.538Z,99095.91
2022-12-04T03:50:01.613Z,99097.53
2022-12-04T03:52:38.958Z,99101.94
2022-12-04T03:55:27.527Z,99101.84
2022-12-04T03:58:02.262Z,99092.63
2022-12-04T04:00:31.175Z,99073.94
2022-12-04T04:03:03.929Z,99080.00
2022-12-04T04:05:33.392Z,99083.81
2022-12-04T04:08:23.204Z,99085.88
2022-12-04T04:10:54.024Z,99079.63
2022-12-04T04:13:51.893Z,99082.47
2022-12-04T04:16:41.192Z,99080.84
2022-12-04T04:19:32.300Z,99094.69
2022-12-04T04:22:21.545Z,99082.53
2022-12-04T04:25:12.121Z,99080.19
2022-12-04T04:27:39.459Z,99089.03
2022-12-04T04:30:09.199Z,99083.72
2022-12-04T04:32:42.985Z,99093.13
2022-12-04T04:35:25.603Z,99092.28
2022-12-04T04:38:13.965Z,99091.72
2022-12-04T04:40:50.911Z,99106.28
2022-12-04T04:43:44.203Z,99109.31
2022-12-04T04:46:17.370Z,99109.84
2022-12-04T04:48:52.715Z,99090.91
2022-12-04T04:51:21.415Z,99079.63
2022-12-04T04:53:56.003Z,99076.66
2022-12-04T04:56:24.504Z,99066.91
2022-12-04T04:58:51.888Z,99064.06
2022-12-04T05:01:22.734Z,99075.78
2022-12-04T05:03:50.182Z,99086.56
2022-12-04T05:06:17.801Z,99097.66
2022-12-04T05:08:45.295Z,99103.41
2022-12-04T05:11:14.316Z,99091.59
2022-12-04T05:13:42.379Z,99092.63
2022-12-04T05:16:14.578Z,99098.09
2022-12-04T05:19:01.079Z,99097.00
2022-12-04T05:21:28.480Z,99099.13
2022-12-04T05:23:55.867Z,99072.84
2022-12-04T05:26:23.269Z,99076.69
2022-12-04T05:28:50.764Z,99072.59
2022-12-04T05:31:18.221Z,99061.16
2022-12-04T05:33:45.623Z,99072.31
2022-12-04T05:36:13.474Z,99075.88
2022-12-04T05:38:41.156Z,99073.03
2022-12-04T05:41:08.646Z,99071.25
2022-12-04T05:43:36.048Z,99078.88
2022-12-04T05:46:08.632Z,99063.22
2022-12-04T05:48:36.593Z,99069.09
2022-12-04T05:51:10.758Z,99074.94
2022-12-04T05:53:38.982Z,99075.97
2022-12-04T05:56:07.586Z,99079.53
2022-12-04T05:58:38.856Z,99073.13
2022-12-04T06:01:20.312Z,99071.50
2022-12-04T06:03:47.751Z,99075.47
2022-12-04T06:06:22.658Z,99073.44
2022-12-04T06:08:51.917Z,99079.16
2022-12-04T06:11:29.168Z,99075.81
2022-12-04T06:13:57.378Z,99070.94
2022-12-04T06:16:30.491Z,99074.13
2022-12-04T06:19:01.072Z,99076.91
2022-12-04T06:21:31.934Z,99079.19
2022-12-04T06:23:59.284Z,99073.88
2022-12-04T06:26:26.588Z,99076.66
2022-12-04T06:28:55.464Z,99099.03
2022-12-04T06:31:24.002Z,99076.72
2022-12-04T06:33:52.960Z,99061.56
2022-12-04T06:36:21.248Z,99055.59
2022-12-04T06:38:50.165Z,99054.00
2022-12-04T06:41:19.686Z,99061.91
2022-12-04T06:43:48.593Z,99055.94
2022-12-04T06:46:21.509Z,99038.28
2022-12-04T06:48:49.767Z,99042.63
2022-12-04T06:51:20.926Z,99045.81
2022-12-04T06:53:48.941Z,99045.41
2022-12-04T06:56:19.408Z,99052.38
2022-12-04T06:58:51.829Z,99042.47
2022-12-04T07:01:21.849Z,99034.13
2022-12-04T07:03:51.809Z,99042.06
2022-12-04T07:06:21.077Z,99037.59
2022-12-04T07:08:53.131Z,99048.69
2022-12-04T07:11:22.347Z,99055.75
2022-12-04T07:13:50.401Z,99060.81
2022-12-04T07:16:20.461Z,99066.88
2022-12-04T07:18:53.985Z,99069.00
2022-12-04T07:21:24.843Z,99065.09
2022-12-04T07:23:55.208Z,99068.50
2022-12-04T07:26:24.003Z,99066.66
2022-12-04T07:28:51.760Z,99065.03
2022-12-04T07:31:21.648Z,99058.94
2022-12-04T07:33:49.716Z,99063.63
2022-12-04T07:36:22.064Z,99075.19
2022-12-04T07:38:50.181Z,99064.31
2022-12-04T07:41:18.521Z,99052.22
2022-12-04T07:43:46.576Z,99046.19
2022-12-04T07:46:17.205Z,99049.19
2022-12-04T07:48:44.601Z,99048.16
2022-12-04T07:51:21.978Z,99064.84
2022-12-04T07:53:51.168Z,99063.22
2022-12-04T07:56:19.184Z,99053.16
2022-12-04T07:58:47.087Z,99041.25
2022-12-04T08:01:17.674Z,99060.09
2022-12-04T08:03:48.719Z,99055.59
2022-12-04T08:06:18.659Z,99040.75
2022-12-04T08:08:47.097Z,99035.78
2022-12-04T08:11:17.683Z,99046.63
2022-12-04T08:13:45.558Z,99053.88
2022-12-04T08:16:13.511Z,99046.72
2022-12-04T08:18:41.624Z,99040.38
2022-12-04T08:21:14.719Z,99042.00
2022-12-04T08:23:44.271Z,99034.06
2022-12-04T08:26:12.539Z,99017.56
2022-12-04T08:28:40.870Z,99011.69
2022-12-04T08:31:12.871Z,99022.63
2022-12-04T08:33:41.586Z,99056.56
2022-12-04T08:36:11.828Z,99052.66
2022-12-04T08:38:39.511Z,99040.28
2022-12-04T08:41:10.715Z,99008.31
2022-12-04T08:43:38.815Z,99025.44
2022-12-04T08:46:11.573Z,99031.63
2022-12-04T08:48:39.307Z,99042.75
2022-12-04T08:51:08.232Z,99016.84
2022-12-04T08:53:39.045Z,99039.31
2022-12-04T08:56:06.832Z,99039.00
2022-12-04T08:58:34.416Z,99052.34
2022-12-04T09:01:07.999Z,99038.28
2022-12-04T09:03:36.085Z,99015.19
2022-12-04T09:06:04.639Z,99001.66
2022-12-04T09:08:32.634Z,99016.97
2022-12-04T09:11:11.904Z,98999.81
2022-12-04T09:13:40.249Z,98993.47
2022-12-04T09:16:09.906Z,98999.50
2022-12-04T09:18:38.595Z,99005.69
2022-12-04T09:21:09.048Z,99000.63
2022-12-04T09:23:37.917Z,99018.56
2022-12-04T09:26:15.593Z,99008.16
2022-12-04T09:28:42.894Z,99002.28
2022-12-04T09:31:12.251Z,99015.47
2022-12-04T09:33:39.623Z,99021.66
2022-12-04T09:36:07.178Z,99019.03
2022-12-04T09:38:34.542Z,99009.59
2022-12-04T09:41:20.807Z,99012.88
2022-12-04T09:43:52.713Z,99018.25
2022-12-04T09:46:39.949Z,99028.03
2022-12-04T09:49:12.916Z,99018.06
2022-12-04T09:51:42.311Z,99016.28
2022-12-04T09:54:21.167Z,99006.03
2022-12-04T09:57:07.853Z,99000.16
2022-12-04T09:59:35.176Z,98993.00
2022-12-04T10:02:27.494Z,98977.50
2022-12-04T10:04:56.073Z,98967.16
2022-12-04T10:07:28.024Z,98975.00
2022-12-04T10:10:05.667Z,98996.25
2022-12-04T10:13:06.558Z,98985.66
2022-12-04T10:16:17.869Z,98993.16
2022-12-04T10:18:53.620Z,98981.41
2022-12-04T10:21:42.657Z,98988.25
2022-12-04T10:24:21.053Z,98985.47
2022-12-04T10:26:48.969Z,98970.28
2022-12-04T10:29:30.572Z,98969.31
2022-12-04T10:32:07.064Z,98972.31
2022-12-04T10:34:34.690Z,98973.47
2022-12-04T10:37:11.586Z,98977.22
2022-12-04T10:40:06.512Z,98974.22
2022-12-04T10:42:47.609Z,98970.56
2022-12-04T10:45:15.142Z,98959.84
2022-12-04T10:47:45.732Z,98957.72
2022-12-04T10:50:16.110Z,98951.78
2022-12-04T10:52:43.652Z,98956.19
2022-12-04T10:55:11.748Z,98963.41
2022-12-04T10:57:46.869Z,98963.06
2022-12-04T11:00:27.133Z,98952.56
2022-12-04T11:02:57.575Z,98951.88
2022-12-04T11:05:51.804Z,98961.28
2022-12-04T11:08:30.550Z,98954.25
2022-12-04T11:11:06.764Z,98953.28
2022-12-04T11:13:34.312Z,98953.78
2022-12-04T11:16:02.833Z,98949.88
2022-12-04T11:18:46.613Z,98948.03
2022-12-04T11:21:26.243Z,98944.03
2022-12-04T11:23:53.971Z,98945.72
2022-12-04T11:26:32.628Z,98944.84
2022-12-04T11:29:01.639Z,98942.72
2022-12-04T11:31:30.729Z,98946.00
2022-12-04T11:34:02.852Z,98945.53
2022-12-04T11:36:34.922Z,98957.38
2022-12-04T11:39:23.084Z,98951.94
2022-12-04T11:42:04.842Z,98953.56
2022-12-04T11:44:35.026Z,98967.91
2022-12-04T11:47:04.828Z,98968.25
2022-12-04T11:49:33.265Z,98960.19
2022-12-04T11:52:06.387Z,98966.28
2022-12-04T11:55:09.235Z,98957.47
2022-12-04T11:57:39.798Z,98964.81
2022-12-04T12:00:21.647Z,98962.03
2022-12-04T12:03:15.338Z,98963.66
2022-12-04T12:05:54.779Z,98963.03
2022-12-04T12:08:48.675Z,98963.22
2022-12-04T12:11:30.248Z,98954.47
2022-12-04T12:14:30.235Z,98952.47
2022-12-04T12:17:10.345Z,98967.56
2022-12-04T12:19:47.979Z,98962.56
2022-12-04T12:22:33.220Z,98960.63
2022-12-04T12:25:06.494Z,98963.25
2022-12-04T12:27:39.727Z,98963.38
2022-12-04T12:30:15.605Z,98965.25
2022-12-04T12:32:52.400Z,98963.28
2022-12-04T12:35:39.039Z,98952.22
2022-12-04T12:38:11.759Z,98954.94
2022-12-04T12:40:53.178Z,98946.56
2022-12-04T12:43:27.166Z,98947.03
2022-12-04T12:46:03.198Z,98952.94
2022-12-04T12:48:56.596Z,98945.31
2022-12-04T12:51:41.676Z,98935.41
2022-12-04T12:54:22.602Z,98946.00
2022-12-04T12:56:55.762Z,98949.47
2022-12-04T12:59:27.453Z,98945.06
2022-12-04T13:02:02.436Z,98932.50
2022-12-04T13:04:41.439Z,98928.28
2022-12-04T13:07:24.055Z,98939.53
2022-12-04T13:10:13.472Z,98939.41
2022-12-04T13:13:04.212Z,98936.09
2022-12-04T13:15:53.818Z,98932.81
2022-12-04T13:18:29.089Z,98928.22
2022-12-04T13:21:00.743Z,98928.22
2022-12-04T13:23:44.915Z,98928.19
2022-12-04T13:27:10.931Z,98920.75
2022-12-04T13:30:09.116Z,98922.88
2022-12-04T13:33:01.715Z,98928.13
2022-12-04T13:35:50.326Z,98926.88
2022-12-04T13:38:58.131Z,98927.38
2022-12-04T13:41:27.756Z,98931.47
2022-12-04T13:43:57.542Z,98942.06
2022-12-04T13:46:40.313Z,98955.81
2022-12-04T13:49:25.941Z,98959.38
2022-12-04T13:51:54.230Z,98955.31
2022-12-04T13:54:26.813Z,98962.63
2022-12-04T13:56:57.287Z,98964.63
2022-12-04T13:59:36.194Z,98966.25
2022-12-04T14:02:28.171Z,98960.22
2022-12-04T14:05:10.630Z,98964.78
2022-12-04T14:07:44.478Z,98965.91
2022-12-04T14:10:15.473Z,98974.56
2022-12-04T14:12:49.949Z,98969.03
2022-12-04T14:15:23.820Z,98985.16
2022-12-04T14:18:17.571Z,98990.88
2022-12-04T14:20:45.065Z,98981.72
2022-12-04T14:23:22.645Z,98987.59
2022-12-04T14:25:51.262Z,98993.81
2022-12-04T14:28:41.657Z,98976.53
2022-12-04T14:31:25.673Z,98977.47
2022-12-04T14:34:03.940Z,98983.84
2022-12-04T14:36:41.244Z,98984.84
2022-12-04T14:39:14.955Z,98986.13
2022-12-04T14:41:42.597Z,98997.69
2022-12-04T14:44:28.952Z,98996.56
2022-12-04T14:47:25.510Z,98995.09
2022-12-04T14:50:11.039Z,99004.72
2022-12-04T14:52:43.881Z,99002.59
2022-12-04T14:55:45.128Z,99001.78
2022-12-04T14:58:31.241Z,98999.47
2022-12-04T15:01:29.360Z,99012.38
2022-12-04T15:04:10.252Z,99008.28
2022-12-04T15:06:39.615Z,99003.53
2022-12-04T15:09:36.197Z,99011.22
2022-12-04T15:12:35.760Z,99019.53
2022-12-04T15:15:09.520Z,99028.16
2022-12-04T15:17:36.941Z,99024.41
2022-12-04T15:20:17.163Z,99020.97
2022-12-04T15:22:45.530Z,99022.94
2022-12-04T15:25:18.949Z,99030.13
2022-12-04T15:27:48.718Z,99029.28
2022-12-04T15:30:19.219Z,99040.16
2022-12-04T15:32:50.511Z,99043.09
2022-12-04T15:35:29.271Z,99053.50
2022-12-04T15:37:57.361Z,99052.53
2022-12-04T15:40:29.595Z,99052.53
2022-12-04T15:43:14.309Z,99050.56
2022-12-04T15:45:41.676Z,99048.63
2022-12-04T15:48:09.162Z,99059.66
2022-12-04T15:50:36.698Z,99055.59
2022-12-04T15:53:24.887Z,99050.38
2022-12-04T15:55:58.859Z,99060.00
2022-12-04T15:58:27.756Z,99065.16
2022-12-04T16:01:01.568Z,99070.69
2022-12-04T16:03:36.265Z,99074.28
2022-12-04T16:06:29.190Z,99072.78
2022-12-04T16:09:21.954Z,99078.53
2022-12-04T16:12:04.309Z,99080.47
2022-12-04T16:14:31.883Z,99082.03
2022-12-04T16:17:05.950Z,99091.81
2022-12-04T16:19:41.108Z,99092.28
2022-12-04T16:22:19.339Z,99106.22
2022-12-04T16:24:47.989Z,99099.03
2022-12-04T16:27:20.151Z,99100.09
2022-12-04T16:29:47.600Z,99112.75
2022-12-04T16:32:17.783Z,99112.34
2022-12-04T16:34:46.011Z,99116.53
2022-12-04T16:37:19.426Z,99109.03
2022-12-04T16:39:47.569Z,99110.59
2022-12-04T16:42:20.696Z,99120.50
2022-12-04T16:44:48.153Z,99109.09
2022-12-04T16:47:16.335Z,99105.31
2022-12-04T16:49:44.867Z,99110.19
2022-12-04T16:52:12.442Z,99112.78
2022-12-04T16:54:40.269Z,99126.28
2022-12-04T16:57:08.428Z,99132.25
2022-12-04T16:59:36.246Z,99131.44
2022-12-04T17:02:11.891Z,99130.75
2022-12-04T17:04:39.244Z,99122.81
2022-12-04T17:07:06.825Z,99118.88
2022-12-04T17:09:34.210Z,99130.53
2022-12-04T17:12:01.494Z,99132.50
2022-12-04T17:14:29.877Z,99123.34
2022-12-04T17:16:59.504Z,99136.06
2022-12-04T17:19:27.691Z,99135.31
2022-12-04T17:21:55.074Z,99137.53
2022-12-04T17:24:22.409Z,99133.75
2022-12-04T17:26:49.712Z,99127.19
2022-12-04T17:29:18.000Z,99130.44
2022-12-04T17:31:45.373Z,99132.94
2022-12-04T17:34:12.782Z,99133.75
2022-12-04T17:36:40.110Z,99144.38
2022-12-04T17:39:08.289Z,99147.63
2022-12-04T17:41:35.767Z,99153.53
2022-12-04T17:44:03.337Z,99150.59
2022-12-04T17:46:30.762Z,99148.25
2022-12-04T17:49:01.451Z,99155.97
2022-12-04T17:51:30.049Z,99154.47
2022-12-04T17:53:59.195Z,99164.00
2022-12-04T17:56:26.567Z,99157.88
2022-12-04T17:58:53.936Z,99166.75
2022-12-04T18:01:23.973Z,99165.91
2022-12-04T18:03:57.283Z,99166.88
2022-12-04T18:06:36.977Z,99169.03
2022-12-04T18:09:06.180Z,99175.59
2022-12-04T18:11:35.292Z,99170.16
2022-12-04T18:14:11.982Z,99175.69
2022-12-04T18:16:46.348Z,99174.19
2022-12-04T18:19:14.582Z,99179.53
2022-12-04T18:21:42.106Z,99181.66
2022-12-04T18:24:09.632Z,99183.41
2022-12-04T18:26:39.870Z,99186.00
2022-12-04T18:29:08.300Z,99183.13
2022-12-04T18:31:37.631Z,99175.75
2022-12-04T18:34:06.162Z,99187.56
2022-12-04T18:36:35.345Z,99192.81
2022-12-04T18:39:08.806Z,99195.03
2022-12-04T18:41:36.637Z,99195.47
2022-12-04T18:44:04.397Z,99187.97
2022-12-04T18:46:32.964Z,99190.72
2022-12-04T18:49:01.231Z,99185.28
2022-12-04T18:51:31.135Z,99188.34
2022-12-04T18:54:26.302Z,99192.19
2022-12-04T18:56:53.649Z,99193.97
2022-12-04T18:59:26.527Z,99188.91
2022-12-04T19:01:54.709Z,99188.59
2022-12-04T19:04:23.973Z,99197.06
2022-12-04T19:06:54.543Z,99210.78
2022-12-04T19:09:47.341Z,99205.72
2022-12-04T19:12:13.747Z,99195.59
2022-12-04T19:14:41.666Z,99205.59
2022-12-04T19:17:09.244Z,99223.69
2022-12-04T19:19:36.962Z,99213.16
2022-12-04T19:22:04.586Z,99224.00
2022-12-04T19:24:32.137Z,99238.63
2022-12-04T19:27:06.454Z,99234.38
2022-12-04T19:29:35.522Z,99233.56
2022-12-04T19:32:03.285Z,99234.13
2022-12-04T19:34:31.777Z,99234.28
2022-12-04T19:36:59.224Z,99227.28
2022-12-04T19:39:26.874Z,99232.91
2022-12-04T19:41:54.313Z,99242.09
2022-12-04T19:47:10.195Z,99253.47
2022-12-04T19:49:37.515Z,99244.59
2022-12-04T19:52:06.691Z,99241.72
2022-12-04T19:54:34.091Z,99249.56
2022-12-04T19:57:01.649Z,99251.50
2022-12-04T19:59:34.629Z,99254.34
2022-12-04T20:02:03.923Z,99254.91
2022-12-04T20:04:31.265Z,99252.56
2022-12-04T20:06:58.984Z,99258.44
2022-12-04T20:09:27.343Z,99262.66
2022-12-04T20:11:54.793Z,99269.22
2022-12-04T20:14:22.340Z,99270.59
2022-12-04T20:16:50.488Z,99268.81
2022-12-04T20:19:19.485Z,99262.00
2022-12-04T20:21:47.289Z,99266.63
2022-12-04T20:24:18.015Z,99278.00
2022-12-04T20:26:46.138Z,99271.28
2022-12-04T20:29:16.316Z,99276.63
2022-12-04T20:31:46.496Z,99268.81
2022-12-04T20:34:17.065Z,99278.94
2022-12-04T20:36:47.462Z,99278.53
2022-12-04T20:39:19.161Z,99284.97
2022-12-04T20:41:46.815Z,99279.78
2022-12-04T20:44:19.575Z,99281.81
2022-12-04T20:46:48.485Z,99284.97
2022-12-04T20:49:22.121Z,99284.56
2022-12-04T20:51:51.447Z,99289.06
2022-12-04T20:54:20.694Z,99292.78
2022-12-04T20:56:49.038Z,99290.84
2022-12-04T20:59:22.435Z,99293.72
2022-12-04T21:01:53.471Z,99295.75
2022-12-04T21:04:28.595Z,99296.72
2022-12-04T21:06:59.484Z,99286.19
2022-12-04T21:09:26.856Z,99288.53
2022-12-04T21:11:56.426Z,99296.44
2022-12-04T21:14:44.815Z,99300.16
2022-12-04T21:17:18.302Z,99306.84
2022-12-04T21:19:51.487Z,99304.94
2022-12-04T21:22:19.798Z,99305.47
2022-12-04T21:24:47.916Z,99309.84
2022-12-04T21:27:20.764Z,99314.66
2022-12-04T21:29:49.634Z,99314.50
2022-12-04T21:32:18.900Z,99312.03
2022-12-04T21:34:46.237Z,99308.63
2022-12-04T21:37:14.418Z,99321.63
2022-12-04T21:39:42.954Z,99310.53
2022-12-04T21:42:29.459Z,99311.38
2022-12-04T21:45:04.082Z,99315.19
2022-12-04T21:47:36.399Z,99312.31
2022-12-04T21:50:08.718Z,99302.31
2022-12-04T21:52:38.444Z,99314.50
2022-12-04T21:55:07.839Z,99314.63
2022-12-04T21:57:35.161Z,99312.31
2022-12-04T22:00:02.484Z,99324.47
2022-12-04T22:02:32.559Z,99314.63
2022-12-04T22:05:00.039Z,99307.53
2022-12-04T22:07:27.640Z,99310.81
2022-12-04T22:09:55.156Z,99319.16
2022-12-04T22:15:10.605Z,99307.13
2022-12-04T22:17:37.944Z,99310.25
2022-12-04T22:20:07.623Z,99301.50
2022-12-04T22:22:35.589Z,99298.47
2022-12-04T22:25:03.625Z,99299.56
2022-12-04T22:27:31.032Z,99293.81
2022-12-04T22:29:58.926Z,99299.84
2022-12-04T22:32:26.319Z,99288.22
2022-12-04T22:34:53.660Z,99286.69
2022-12-04T22:37:21.072Z,99289.44
2022-12-04T22:39:48.592Z,99290.25
2022-12-04T22:42:15.949Z,99284.78
2022-12-04T22:44:43.284Z,99296.00
2022-12-04T22:47:10.678Z,99282.06
2022-12-04T22:49:38.036Z,99288.63
2022-12-04T22:52:05.404Z,99290.69
2022-12-04T22:54:32.818Z,99283.97
2022-12-04T22:57:00.173Z,99285.31
2022-12-04T22:59:27.552Z,99277.69
2022-12-04T23:01:55.127Z,99287.91
2022-12-04T23:04:22.572Z,99285.03
2022-12-04T23:06:50.087Z,99278.75
2022-12-04T23:09:17.918Z,99278.59
2022-12-04T23:11:45.741Z,99281.78
2022-12-04T23:14:15.255Z,99276.88
2022-12-04T23:16:43.145Z,99284.38
2022-12-04T23:19:16.419Z,99292.03
2022-12-04T23:21:44.523Z,99287.25
2022-12-04T23:24:12.591Z,99280.16
2022-12-04T23:26:43.494Z,99282.22
2022-12-04T23:29:29.818Z,99272.53
2022-12-04T23:31:58.519Z,99266.50
2022-12-04T23:34:30.408Z,99272.25
2022-12-04T23:36:57.792Z,99272.66
2022-12-04T23:39:25.475Z,99271.84
2022-12-04T23:41:54.633Z,99281.25
2022-12-04T23:44:22.028Z,99278.63
2022-12-04T23:46:50.643Z,99283.41
2022-12-04T23:49:17.936Z,99278.19
2022-12-04T23:51:45.312Z,99279.91
2022-12-04T23:54:12.598Z,99282.94
2022-12-04T23:56:40.146Z,99278.81
2022-12-04T23:59:07.978Z,99283.19
